sensor_id;sensor_type;location;lat;lon;timestamp;P1;durP1;ratioP1;P2;durP2;ratioP2
28545;SDS011;15749;49.606;8.738;2022-08-21T00:00:41;2.30;;;1.80;;
28545;SDS011;15749;49.606;8.738;2022-08-21T00:03:30;2.17;;;1.97;;
28545;SDS011;15749;49.606;8.738;2022-08-21T00:06:18;3.40;;;2.00;;
28545;SDS011;15749;49.606;8.738;2022-08-21T00:09:06;2.20;;;2.00;;
28545;SDS011;15749;49.606;8.738;2022-08-21T00:11:54;2.23;;;2.03;;
28545;SDS011;15749;49.606;8.738;2022-08-21T00:14:42;1.90;;;1.80;;
28545;SDS011;15749;49.606;8.738;2022-08-21T00:17:31;4.90;;;2.43;;
28545;SDS011;15749;49.606;8.738;2022-08-21T00:20:20;2.60;;;2.40;;
28545;SDS011;15749;49.606;8.738;2022-08-21T00:23:09;3.13;;;2.10;;
28545;SDS011;15749;49.606;8.738;2022-08-21T00:25:57;2.53;;;2.20;;
28545;SDS011;15749;49.606;8.738;2022-08-21T00:28:45;2.07;;;1.87;;
28545;SDS011;15749;49.606;8.738;2022-08-21T00:31:34;3.80;;;2.17;;
28545;SDS011;15749;49.606;8.738;2022-08-21T00:34:22;2.63;;;1.77;;
28545;SDS011;15749;49.606;8.738;2022-08-21T00:37:10;2.80;;;2.30;;
28545;SDS011;15749;49.606;8.738;2022-08-21T00:39:58;2.27;;;2.07;;
28545;SDS011;15749;49.606;8.738;2022-08-21T00:42:46;2.30;;;2.10;;
28545;SDS011;15749;49.606;8.738;2022-08-21T00:45:38;2.30;;;2.10;;
28545;SDS011;15749;49.606;8.738;2022-08-21T00:48:26;2.20;;;2.00;;
28545;SDS011;15749;49.606;8.738;2022-08-21T00:51:15;2.37;;;2.17;;
28545;SDS011;15749;49.606;8.738;2022-08-21T00:54:10;2.37;;;2.13;;
28545;SDS011;15749;49.606;8.738;2022-08-21T00:57:05;2.87;;;2.07;;
28545;SDS011;15749;49.606;8.738;2022-08-21T01:00:00;2.57;;;2.10;;
28545;SDS011;15749;49.606;8.738;2022-08-21T01:02:53;2.87;;;2.40;;
28545;SDS011;15749;49.606;8.738;2022-08-21T01:05:41;2.20;;;2.00;;
28545;SDS011;15749;49.606;8.738;2022-08-21T01:08:29;2.27;;;2.07;;
28545;SDS011;15749;49.606;8.738;2022-08-21T01:11:20;2.90;;;2.30;;
28545;SDS011;15749;49.606;8.738;2022-08-21T01:14:08;3.23;;;1.90;;
28545;SDS011;15749;49.606;8.738;2022-08-21T01:16:57;3.30;;;2.53;;
28545;SDS011;15749;49.606;8.738;2022-08-21T01:19:48;2.50;;;2.30;;
28545;SDS011;15749;49.606;8.738;2022-08-21T01:22:37;2.77;;;2.53;;
28545;SDS011;15749;49.606;8.738;2022-08-21T01:25:25;2.37;;;2.17;;
28545;SDS011;15749;49.606;8.738;2022-08-21T01:28:13;2.30;;;2.10;;
28545;SDS011;15749;49.606;8.738;2022-08-21T01:31:01;3.13;;;2.30;;
28545;SDS011;15749;49.606;8.738;2022-08-21T01:33:53;2.20;;;2.00;;
28545;SDS011;15749;49.606;8.738;2022-08-21T01:36:42;2.53;;;2.33;;
28545;SDS011;15749;49.606;8.738;2022-08-21T01:39:32;2.60;;;2.40;;
28545;SDS011;15749;49.606;8.738;2022-08-21T01:42:21;9.00;;;2.37;;
28545;SDS011;15749;49.606;8.738;2022-08-21T01:45:09;2.50;;;2.30;;
28545;SDS011;15749;49.606;8.738;2022-08-21T01:47:58;2.53;;;2.33;;
28545;SDS011;15749;49.606;8.738;2022-08-21T01:50:46;2.43;;;2.23;;
28545;SDS011;15749;49.606;8.738;2022-08-21T01:53:41;2.53;;;2.33;;
28545;SDS011;15749;49.606;8.738;2022-08-21T01:56:31;3.63;;;2.50;;
28545;SDS011;15749;49.606;8.738;2022-08-21T01:59:26;5.83;;;2.30;;
28545;SDS011;15749;49.606;8.738;2022-08-21T02:02:14;3.20;;;2.43;;
28545;SDS011;15749;49.606;8.738;2022-08-21T02:05:02;2.83;;;2.50;;
28545;SDS011;15749;49.606;8.738;2022-08-21T02:07:52;2.83;;;2.30;;
28545;SDS011;15749;49.606;8.738;2022-08-21T02:10:41;2.47;;;2.27;;
28545;SDS011;15749;49.606;8.738;2022-08-21T02:13:35;2.60;;;2.40;;
28545;SDS011;15749;49.606;8.738;2022-08-21T02:16:22;2.47;;;2.20;;
28545;SDS011;15749;49.606;8.738;2022-08-21T02:19:10;2.77;;;2.37;;
28545;SDS011;15749;49.606;8.738;2022-08-21T02:22:00;2.53;;;2.33;;
28545;SDS011;15749;49.606;8.738;2022-08-21T02:24:48;2.23;;;2.07;;
28545;SDS011;15749;49.606;8.738;2022-08-21T02:27:40;2.50;;;2.30;;
28545;SDS011;15749;49.606;8.738;2022-08-21T02:30:35;2.83;;;2.30;;
28545;SDS011;15749;49.606;8.738;2022-08-21T02:33:33;2.70;;;2.50;;
28545;SDS011;15749;49.606;8.738;2022-08-21T02:36:21;2.90;;;2.53;;
28545;SDS011;15749;49.606;8.738;2022-08-21T02:39:12;3.77;;;2.50;;
28545;SDS011;15749;49.606;8.738;2022-08-21T02:42:11;2.77;;;2.50;;
28545;SDS011;15749;49.606;8.738;2022-08-21T02:44:59;3.03;;;2.40;;
28545;SDS011;15749;49.606;8.738;2022-08-21T02:47:48;2.57;;;2.37;;
28545;SDS011;15749;49.606;8.738;2022-08-21T02:50:38;2.37;;;2.17;;
28545;SDS011;15749;49.606;8.738;2022-08-21T02:53:36;2.33;;;2.13;;
28545;SDS011;15749;49.606;8.738;2022-08-21T02:56:24;2.53;;;2.33;;
28545;SDS011;15749;49.606;8.738;2022-08-21T02:59:15;3.27;;;2.60;;
28545;SDS011;15749;49.606;8.738;2022-08-21T03:02:03;2.40;;;2.20;;
28545;SDS011;15749;49.606;8.738;2022-08-21T03:04:56;2.90;;;2.60;;
28545;SDS011;15749;49.606;8.738;2022-08-21T03:07:46;2.60;;;2.30;;
28545;SDS011;15749;49.606;8.738;2022-08-21T03:10:38;2.47;;;2.23;;
28545;SDS011;15749;49.606;8.738;2022-08-21T03:13:31;2.83;;;2.23;;
28545;SDS011;15749;49.606;8.738;2022-08-21T03:16:19;3.00;;;2.47;;
28545;SDS011;15749;49.606;8.738;2022-08-21T03:19:31;2.67;;;2.40;;
28545;SDS011;15749;49.606;8.738;2022-08-21T03:22:20;2.43;;;2.23;;
28545;SDS011;15749;49.606;8.738;2022-08-21T03:25:08;3.50;;;2.60;;
28545;SDS011;15749;49.606;8.738;2022-08-21T03:27:57;2.63;;;2.43;;
28545;SDS011;15749;49.606;8.738;2022-08-21T03:30:50;3.00;;;2.80;;
28545;SDS011;15749;49.606;8.738;2022-08-21T03:33:39;2.80;;;2.60;;
28545;SDS011;15749;49.606;8.738;2022-08-21T03:36:26;2.53;;;2.33;;
28545;SDS011;15749;49.606;8.738;2022-08-21T03:39:23;2.60;;;2.40;;
28545;SDS011;15749;49.606;8.738;2022-08-21T03:45:15;4.13;;;2.70;;
28545;SDS011;15749;49.606;8.738;2022-08-21T03:48:25;3.90;;;2.77;;
28545;SDS011;15749;49.606;8.738;2022-08-21T03:51:22;2.70;;;2.50;;
28545;SDS011;15749;49.606;8.738;2022-08-21T03:57:36;3.80;;;2.70;;
28545;SDS011;15749;49.606;8.738;2022-08-21T04:01:29;2.80;;;2.60;;
28545;SDS011;15749;49.606;8.738;2022-08-21T04:28:58;2.57;;;2.37;;
28545;SDS011;15749;49.606;8.738;2022-08-21T05:01:12;3.67;;;2.67;;
28545;SDS011;15749;49.606;8.738;2022-08-21T05:04:04;2.70;;;2.50;;
28545;SDS011;15749;49.606;8.738;2022-08-21T05:06:56;3.83;;;3.20;;
28545;SDS011;15749;49.606;8.738;2022-08-21T05:09:47;3.23;;;2.93;;
28545;SDS011;15749;49.606;8.738;2022-08-21T05:12:34;3.67;;;3.30;;
28545;SDS011;15749;49.606;8.738;2022-08-21T05:15:23;3.27;;;2.97;;
28545;SDS011;15749;49.606;8.738;2022-08-21T05:18:12;3.53;;;3.23;;
28545;SDS011;15749;49.606;8.738;2022-08-21T05:21:00;3.60;;;3.10;;
28545;SDS011;15749;49.606;8.738;2022-08-21T05:23:47;3.70;;;3.03;;
28545;SDS011;15749;49.606;8.738;2022-08-21T05:26:34;3.60;;;3.30;;
28545;SDS011;15749;49.606;8.738;2022-08-21T05:29:30;3.10;;;2.80;;
28545;SDS011;15749;49.606;8.738;2022-08-21T05:32:17;3.97;;;2.77;;
28545;SDS011;15749;49.606;8.738;2022-08-21T05:35:06;2.93;;;2.73;;
28545;SDS011;15749;49.606;8.738;2022-08-21T05:37:55;3.43;;;3.13;;
28545;SDS011;15749;49.606;8.738;2022-08-21T05:40:43;3.77;;;3.37;;
28545;SDS011;15749;49.606;8.738;2022-08-21T05:43:31;3.43;;;3.13;;
28545;SDS011;15749;49.606;8.738;2022-08-21T05:46:21;3.80;;;3.30;;
28545;SDS011;15749;49.606;8.738;2022-08-21T05:49:08;4.43;;;3.63;;
28545;SDS011;15749;49.606;8.738;2022-08-21T05:51:58;4.47;;;3.23;;
28545;SDS011;15749;49.606;8.738;2022-08-21T05:54:46;3.63;;;3.33;;
28545;SDS011;15749;49.606;8.738;2022-08-21T05:57:33;4.17;;;3.77;;
28545;SDS011;15749;49.606;8.738;2022-08-21T06:00:21;3.67;;;3.37;;
28545;SDS011;15749;49.606;8.738;2022-08-21T06:03:13;4.37;;;3.73;;
28545;SDS011;15749;49.606;8.738;2022-08-21T06:06:03;5.60;;;3.57;;
28545;SDS011;15749;49.606;8.738;2022-08-21T06:08:52;3.83;;;3.43;;
28545;SDS011;15749;49.606;8.738;2022-08-21T06:11:40;4.17;;;3.77;;
28545;SDS011;15749;49.606;8.738;2022-08-21T06:14:27;4.13;;;3.53;;
28545;SDS011;15749;49.606;8.738;2022-08-21T06:17:15;4.90;;;3.77;;
28545;SDS011;15749;49.606;8.738;2022-08-21T06:20:03;4.30;;;3.80;;
28545;SDS011;15749;49.606;8.738;2022-08-21T06:22:52;4.40;;;3.40;;
28545;SDS011;15749;49.606;8.738;2022-08-21T06:25:40;4.80;;;3.87;;
28545;SDS011;15749;49.606;8.738;2022-08-21T06:28:28;4.50;;;3.73;;
28545;SDS011;15749;49.606;8.738;2022-08-21T06:31:16;4.53;;;4.13;;
28545;SDS011;15749;49.606;8.738;2022-08-21T06:34:06;4.10;;;3.60;;
28545;SDS011;15749;49.606;8.738;2022-08-21T06:36:53;5.10;;;3.80;;
28545;SDS011;15749;49.606;8.738;2022-08-21T06:39:41;5.73;;;4.17;;
28545;SDS011;15749;49.606;8.738;2022-08-21T06:42:31;4.33;;;3.77;;
28545;SDS011;15749;49.606;8.738;2022-08-21T06:45:18;6.30;;;3.70;;
28545;SDS011;15749;49.606;8.738;2022-08-21T06:48:06;3.93;;;3.63;;
28545;SDS011;15749;49.606;8.738;2022-08-21T06:50:53;4.27;;;3.60;;
28545;SDS011;15749;49.606;8.738;2022-08-21T06:53:41;4.57;;;3.70;;
28545;SDS011;15749;49.606;8.738;2022-08-21T06:56:29;7.60;;;3.90;;
28545;SDS011;15749;49.606;8.738;2022-08-21T06:59:18;4.30;;;3.63;;
28545;SDS011;15749;49.606;8.738;2022-08-21T07:02:06;3.63;;;3.33;;
28545;SDS011;15749;49.606;8.738;2022-08-21T07:04:54;4.43;;;3.67;;
28545;SDS011;15749;49.606;8.738;2022-08-21T07:07:41;3.87;;;3.50;;
28545;SDS011;15749;49.606;8.738;2022-08-21T07:10:28;5.87;;;3.77;;
28545;SDS011;15749;49.606;8.738;2022-08-21T07:13:16;4.73;;;3.93;;
28545;SDS011;15749;49.606;8.738;2022-08-21T07:16:06;6.90;;;3.47;;
28545;SDS011;15749;49.606;8.738;2022-08-21T07:18:54;3.40;;;3.10;;
28545;SDS011;15749;49.606;8.738;2022-08-21T07:21:41;4.27;;;3.37;;
28545;SDS011;15749;49.606;8.738;2022-08-21T07:24:28;4.30;;;3.20;;
28545;SDS011;15749;49.606;8.738;2022-08-21T07:27:16;6.07;;;3.60;;
28545;SDS011;15749;49.606;8.738;2022-08-21T07:30:04;5.37;;;3.23;;
28545;SDS011;15749;49.606;8.738;2022-08-21T07:32:54;4.63;;;3.30;;
28545;SDS011;15749;49.606;8.738;2022-08-21T07:35:43;4.07;;;2.90;;
28545;SDS011;15749;49.606;8.738;2022-08-21T07:38:31;4.10;;;3.20;;
28545;SDS011;15749;49.606;8.738;2022-08-21T07:41:21;4.33;;;2.83;;
28545;SDS011;15749;49.606;8.738;2022-08-21T07:44:12;6.33;;;3.33;;
28545;SDS011;15749;49.606;8.738;2022-08-21T07:46:59;5.17;;;3.10;;
28545;SDS011;15749;49.606;8.738;2022-08-21T07:49:48;4.90;;;3.30;;
28545;SDS011;15749;49.606;8.738;2022-08-21T07:52:36;4.10;;;2.90;;
28545;SDS011;15749;49.606;8.738;2022-08-21T07:55:23;6.43;;;3.50;;
28545;SDS011;15749;49.606;8.738;2022-08-21T07:58:11;3.75;;;3.10;;
28545;SDS011;15749;49.606;8.738;2022-08-21T08:00:59;5.07;;;3.60;;
28545;SDS011;15749;49.606;8.738;2022-08-21T08:03:46;6.65;;;3.20;;
28545;SDS011;15749;49.606;8.738;2022-08-21T08:06:35;4.60;;;3.20;;
28545;SDS011;15749;49.606;8.738;2022-08-21T08:09:22;3.92;;;3.30;;
28545;SDS011;15749;49.606;8.738;2022-08-21T08:12:10;4.28;;;3.00;;
28545;SDS011;15749;49.606;8.738;2022-08-21T08:14:57;5.82;;;3.13;;
28545;SDS011;15749;49.606;8.738;2022-08-21T08:17:47;3.30;;;3.00;;
28545;SDS011;15749;49.606;8.738;2022-08-21T08:20:34;3.08;;;2.78;;
28545;SDS011;15749;49.606;8.738;2022-08-21T08:23:23;2.92;;;2.63;;
28545;SDS011;15749;49.606;8.738;2022-08-21T08:26:11;3.58;;;3.17;;
28545;SDS011;15749;49.606;8.738;2022-08-21T08:29:01;3.40;;;2.78;;
28545;SDS011;15749;49.606;8.738;2022-08-21T08:31:48;3.47;;;3.13;;
28545;SDS011;15749;49.606;8.738;2022-08-21T08:34:36;5.10;;;2.90;;
28545;SDS011;15749;49.606;8.738;2022-08-21T08:37:25;3.75;;;2.80;;
28545;SDS011;15749;49.606;8.738;2022-08-21T08:40:22;3.22;;;2.38;;
28545;SDS011;15749;49.606;8.738;2022-08-21T08:43:18;4.88;;;2.90;;
28545;SDS011;15749;49.606;8.738;2022-08-21T08:46:09;3.45;;;2.83;;
28545;SDS011;15749;49.606;8.738;2022-08-21T08:49:03;3.38;;;2.80;;
28545;SDS011;15749;49.606;8.738;2022-08-21T08:52:01;6.50;;;3.30;;
28545;SDS011;15749;49.606;8.738;2022-08-21T08:54:55;4.35;;;2.67;;
28545;SDS011;15749;49.606;8.738;2022-08-21T08:57:50;3.40;;;2.80;;
28545;SDS011;15749;49.606;8.738;2022-08-21T09:00:39;7.28;;;3.13;;
28545;SDS011;15749;49.606;8.738;2022-08-21T09:03:27;4.97;;;2.50;;
28545;SDS011;15749;49.606;8.738;2022-08-21T09:06:18;2.85;;;2.47;;
28545;SDS011;15749;49.606;8.738;2022-08-21T09:09:29;5.30;;;2.75;;
28545;SDS011;15749;49.606;8.738;2022-08-21T09:12:30;11.82;;;3.03;;
28545;SDS011;15749;49.606;8.738;2022-08-21T09:15:30;5.45;;;2.80;;
28545;SDS011;15749;49.606;8.738;2022-08-21T09:18:29;5.07;;;2.38;;
28545;SDS011;15749;49.606;8.738;2022-08-21T09:21:28;2.97;;;2.42;;
28545;SDS011;15749;49.606;8.738;2022-08-21T09:24:29;2.88;;;2.20;;
28545;SDS011;15749;49.606;8.738;2022-08-21T09:27:20;4.03;;;3.08;;
28545;SDS011;15749;49.606;8.738;2022-08-21T09:30:08;3.88;;;2.20;;
28545;SDS011;15749;49.606;8.738;2022-08-21T09:32:58;3.67;;;2.58;;
28545;SDS011;15749;49.606;8.738;2022-08-21T09:35:50;6.03;;;2.55;;
28545;SDS011;15749;49.606;8.738;2022-08-21T09:38:40;4.28;;;2.67;;
28545;SDS011;15749;49.606;8.738;2022-08-21T09:41:39;4.30;;;2.50;;
28545;SDS011;15749;49.606;8.738;2022-08-21T09:44:29;4.85;;;2.72;;
28545;SDS011;15749;49.606;8.738;2022-08-21T09:47:19;2.78;;;2.13;;
28545;SDS011;15749;49.606;8.738;2022-08-21T09:50:13;3.50;;;2.47;;
28545;SDS011;15749;49.606;8.738;2022-08-21T09:53:05;4.85;;;2.42;;
28545;SDS011;15749;49.606;8.738;2022-08-21T09:56:16;3.13;;;2.22;;
28545;SDS011;15749;49.606;8.738;2022-08-21T09:59:26;4.30;;;2.20;;
28545;SDS011;15749;49.606;8.738;2022-08-21T10:02:26;3.60;;;2.15;;
28545;SDS011;15749;49.606;8.738;2022-08-21T10:05:19;4.45;;;2.10;;
28545;SDS011;15749;49.606;8.738;2022-08-21T10:08:17;8.20;;;2.33;;
28545;SDS011;15749;49.606;8.738;2022-08-21T10:11:07;5.22;;;2.40;;
28545;SDS011;15749;49.606;8.738;2022-08-21T10:13:59;7.15;;;2.60;;
28545;SDS011;15749;49.606;8.738;2022-08-21T10:17:00;5.57;;;2.40;;
28545;SDS011;15749;49.606;8.738;2022-08-21T10:20:00;3.13;;;1.90;;
28545;SDS011;15749;49.606;8.738;2022-08-21T10:23:02;3.33;;;2.13;;
28545;SDS011;15749;49.606;8.738;2022-08-21T10:26:07;4.35;;;2.15;;
28545;SDS011;15749;49.606;8.738;2022-08-21T10:29:10;3.95;;;2.03;;
28545;SDS011;15749;49.606;8.738;2022-08-21T10:32:14;6.15;;;2.10;;
28545;SDS011;15749;49.606;8.738;2022-08-21T10:35:20;5.55;;;2.22;;
28545;SDS011;15749;49.606;8.738;2022-08-21T10:42:08;2.65;;;1.88;;
28545;SDS011;15749;49.606;8.738;2022-08-21T10:45:15;5.03;;;2.00;;
28545;SDS011;15749;49.606;8.738;2022-08-21T10:48:20;4.65;;;2.25;;
28545;SDS011;15749;49.606;8.738;2022-08-21T10:51:15;4.72;;;2.25;;
28545;SDS011;15749;49.606;8.738;2022-08-21T10:54:16;3.45;;;2.00;;
28545;SDS011;15749;49.606;8.738;2022-08-21T10:57:19;3.92;;;2.28;;
28545;SDS011;15749;49.606;8.738;2022-08-21T11:00:17;4.15;;;2.25;;
28545;SDS011;15749;49.606;8.738;2022-08-21T11:03:10;3.50;;;1.90;;
28545;SDS011;15749;49.606;8.738;2022-08-21T11:06:04;3.50;;;2.13;;
28545;SDS011;15749;49.606;8.738;2022-08-21T11:09:11;3.10;;;1.85;;
28545;SDS011;15749;49.606;8.738;2022-08-21T11:12:05;2.17;;;1.80;;
28545;SDS011;15749;49.606;8.738;2022-08-21T11:15:07;3.95;;;2.10;;
28545;SDS011;15749;49.606;8.738;2022-08-21T11:18:16;3.17;;;2.08;;
28545;SDS011;15749;49.606;8.738;2022-08-21T11:21:15;3.70;;;1.80;;
28545;SDS011;15749;49.606;8.738;2022-08-21T11:24:21;4.60;;;2.55;;
28545;SDS011;15749;49.606;8.738;2022-08-21T11:27:18;2.85;;;1.77;;
28545;SDS011;15749;49.606;8.738;2022-08-21T11:30:12;4.63;;;1.98;;
28545;SDS011;15749;49.606;8.738;2022-08-21T11:33:04;3.00;;;1.77;;
28545;SDS011;15749;49.606;8.738;2022-08-21T11:36:11;4.32;;;2.20;;
28545;SDS011;15749;49.606;8.738;2022-08-21T11:39:24;6.55;;;2.15;;
28545;SDS011;15749;49.606;8.738;2022-08-21T11:42:20;3.03;;;1.95;;
28545;SDS011;15749;49.606;8.738;2022-08-21T11:45:19;2.22;;;1.80;;
28545;SDS011;15749;49.606;8.738;2022-08-21T11:48:22;4.82;;;1.80;;
28545;SDS011;15749;49.606;8.738;2022-08-21T11:51:25;2.67;;;1.73;;
28545;SDS011;15749;49.606;8.738;2022-08-21T11:54:26;2.20;;;1.58;;
28545;SDS011;15749;49.606;8.738;2022-08-21T11:57:21;3.67;;;1.90;;
28545;SDS011;15749;49.606;8.738;2022-08-21T12:00:13;3.38;;;1.90;;
28545;SDS011;15749;49.606;8.738;2022-08-21T12:03:08;3.20;;;1.60;;
28545;SDS011;15749;49.606;8.738;2022-08-21T12:06:01;3.17;;;1.83;;
28545;SDS011;15749;49.606;8.738;2022-08-21T12:08:57;3.70;;;1.90;;
28545;SDS011;15749;49.606;8.738;2022-08-21T12:11:50;3.90;;;1.90;;
28545;SDS011;15749;49.606;8.738;2022-08-21T12:14:51;3.05;;;1.90;;
28545;SDS011;15749;49.606;8.738;2022-08-21T12:18:00;3.72;;;1.98;;
28545;SDS011;15749;49.606;8.738;2022-08-21T12:21:03;3.13;;;2.00;;
28545;SDS011;15749;49.606;8.738;2022-08-21T12:24:15;5.90;;;1.92;;
28545;SDS011;15749;49.606;8.738;2022-08-21T12:27:21;2.25;;;1.67;;
28545;SDS011;15749;49.606;8.738;2022-08-21T12:30:20;3.90;;;1.90;;
28545;SDS011;15749;49.606;8.738;2022-08-21T12:33:22;2.90;;;1.90;;
28545;SDS011;15749;49.606;8.738;2022-08-21T12:36:15;2.47;;;1.50;;
28545;SDS011;15749;49.606;8.738;2022-08-21T12:39:11;2.10;;;1.50;;
28545;SDS011;15749;49.606;8.738;2022-08-21T12:42:05;4.40;;;1.80;;
28545;SDS011;15749;49.606;8.738;2022-08-21T12:45:06;2.85;;;1.67;;
28545;SDS011;15749;49.606;8.738;2022-08-21T12:48:06;4.90;;;1.75;;
28545;SDS011;15749;49.606;8.738;2022-08-21T12:51:06;4.53;;;1.90;;
28545;SDS011;15749;49.606;8.738;2022-08-21T12:53:59;4.40;;;1.77;;
28545;SDS011;15749;49.606;8.738;2022-08-21T12:59:44;1.70;;;1.40;;
28545;SDS011;15749;49.606;8.738;2022-08-21T13:02:35;3.55;;;1.60;;
28545;SDS011;15749;49.606;8.738;2022-08-21T13:05:30;5.45;;;2.35;;
28545;SDS011;15749;49.606;8.738;2022-08-21T13:08:21;3.75;;;1.90;;
28545;SDS011;15749;49.606;8.738;2022-08-21T13:11:12;4.68;;;1.95;;
28545;SDS011;15749;49.606;8.738;2022-08-21T13:14:20;4.50;;;2.20;;
28545;SDS011;15749;49.606;8.738;2022-08-21T13:17:16;5.63;;;2.08;;
28545;SDS011;15749;49.606;8.738;2022-08-21T13:20:23;2.97;;;1.77;;
28545;SDS011;15749;49.606;8.738;2022-08-21T13:23:19;3.78;;;1.88;;
28545;SDS011;15749;49.606;8.738;2022-08-21T13:26:12;6.07;;;2.58;;
28545;SDS011;15749;49.606;8.738;2022-08-21T13:29:06;3.55;;;2.10;;
28545;SDS011;15749;49.606;8.738;2022-08-21T13:31:59;5.60;;;2.10;;
28545;SDS011;15749;49.606;8.738;2022-08-21T13:34:50;2.65;;;1.88;;
28545;SDS011;15749;49.606;8.738;2022-08-21T13:37:40;6.95;;;2.20;;
28545;SDS011;15749;49.606;8.738;2022-08-21T13:40:31;3.22;;;2.10;;
28545;SDS011;15749;49.606;8.738;2022-08-21T13:43:28;7.75;;;2.28;;
28545;SDS011;15749;49.606;8.738;2022-08-21T13:46:20;2.10;;;1.77;;
28545;SDS011;15749;49.606;8.738;2022-08-21T13:49:10;6.43;;;2.20;;
28545;SDS011;15749;49.606;8.738;2022-08-21T13:52:03;3.90;;;2.10;;
28545;SDS011;15749;49.606;8.738;2022-08-21T13:55:07;5.05;;;2.25;;
28545;SDS011;15749;49.606;8.738;2022-08-21T13:58:00;3.08;;;1.92;;
28545;SDS011;15749;49.606;8.738;2022-08-21T14:00:50;4.72;;;1.83;;
28545;SDS011;15749;49.606;8.738;2022-08-21T14:03:41;3.30;;;1.90;;
28545;SDS011;15749;49.606;8.738;2022-08-21T14:06:33;2.75;;;2.05;;
28545;SDS011;15749;49.606;8.738;2022-08-21T14:09:23;2.25;;;1.65;;
28545;SDS011;15749;49.606;8.738;2022-08-21T14:12:19;2.45;;;2.08;;
28545;SDS011;15749;49.606;8.738;2022-08-21T14:15:20;3.63;;;1.83;;
28545;SDS011;15749;49.606;8.738;2022-08-21T14:18:14;3.15;;;2.20;;
28545;SDS011;15749;49.606;8.738;2022-08-21T14:21:05;3.45;;;2.10;;
28545;SDS011;15749;49.606;8.738;2022-08-21T14:24:00;2.50;;;1.70;;
28545;SDS011;15749;49.606;8.738;2022-08-21T14:26:53;4.95;;;2.42;;
28545;SDS011;15749;49.606;8.738;2022-08-21T14:29:45;3.03;;;1.85;;
28545;SDS011;15749;49.606;8.738;2022-08-21T14:32:38;2.45;;;1.90;;
28545;SDS011;15749;49.606;8.738;2022-08-21T14:35:30;3.03;;;1.92;;
28545;SDS011;15749;49.606;8.738;2022-08-21T14:38:19;2.40;;;1.75;;
28545;SDS011;15749;49.606;8.738;2022-08-21T14:41:13;3.42;;;2.08;;
28545;SDS011;15749;49.606;8.738;2022-08-21T14:44:09;3.00;;;1.80;;
28545;SDS011;15749;49.606;8.738;2022-08-21T14:46:58;4.88;;;2.13;;
28545;SDS011;15749;49.606;8.738;2022-08-21T14:49:46;3.88;;;2.28;;
28545;SDS011;15749;49.606;8.738;2022-08-21T14:52:34;4.05;;;2.38;;
28545;SDS011;15749;49.606;8.738;2022-08-21T14:55:22;2.38;;;1.80;;
28545;SDS011;15749;49.606;8.738;2022-08-21T14:58:10;3.10;;;1.98;;
28545;SDS011;15749;49.606;8.738;2022-08-21T15:00:58;2.28;;;1.75;;
28545;SDS011;15749;49.606;8.738;2022-08-21T15:03:50;3.22;;;1.85;;
28545;SDS011;15749;49.606;8.738;2022-08-21T15:06:38;3.78;;;2.00;;
28545;SDS011;15749;49.606;8.738;2022-08-21T15:09:26;2.65;;;1.80;;
28545;SDS011;15749;49.606;8.738;2022-08-21T15:12:14;3.28;;;2.28;;
28545;SDS011;15749;49.606;8.738;2022-08-21T15:15:02;2.38;;;1.85;;
28545;SDS011;15749;49.606;8.738;2022-08-21T15:17:52;2.67;;;1.90;;
28545;SDS011;15749;49.606;8.738;2022-08-21T15:20:42;5.30;;;2.10;;
28545;SDS011;15749;49.606;8.738;2022-08-21T15:23:29;13.07;;;2.47;;
28545;SDS011;15749;49.606;8.738;2022-08-21T15:26:17;2.40;;;1.70;;
28545;SDS011;15749;49.606;8.738;2022-08-21T15:29:06;2.45;;;1.70;;
28545;SDS011;15749;49.606;8.738;2022-08-21T15:31:56;2.83;;;1.80;;
28545;SDS011;15749;49.606;8.738;2022-08-21T15:34:46;3.03;;;1.80;;
28545;SDS011;15749;49.606;8.738;2022-08-21T15:37:36;2.30;;;1.63;;
28545;SDS011;15749;49.606;8.738;2022-08-21T15:40:24;3.83;;;2.20;;
28545;SDS011;15749;49.606;8.738;2022-08-21T15:43:16;2.35;;;1.83;;
28545;SDS011;15749;49.606;8.738;2022-08-21T15:46:15;2.40;;;1.50;;
28545;SDS011;15749;49.606;8.738;2022-08-21T15:49:05;3.05;;;1.70;;
28545;SDS011;15749;49.606;8.738;2022-08-21T15:51:53;2.42;;;1.90;;
28545;SDS011;15749;49.606;8.738;2022-08-21T15:54:42;3.00;;;1.60;;
28545;SDS011;15749;49.606;8.738;2022-08-21T15:57:31;3.20;;;2.10;;
28545;SDS011;15749;49.606;8.738;2022-08-21T16:00:20;2.90;;;1.88;;
28545;SDS011;15749;49.606;8.738;2022-08-21T16:03:10;3.00;;;1.83;;
28545;SDS011;15749;49.606;8.738;2022-08-21T16:06:02;5.88;;;2.47;;
28545;SDS011;15749;49.606;8.738;2022-08-21T16:08:50;2.30;;;1.60;;
28545;SDS011;15749;49.606;8.738;2022-08-21T16:11:39;2.55;;;2.05;;
28545;SDS011;15749;49.606;8.738;2022-08-21T16:14:27;3.03;;;1.90;;
28545;SDS011;15749;49.606;8.738;2022-08-21T16:17:16;2.92;;;1.60;;
28545;SDS011;15749;49.606;8.738;2022-08-21T16:20:06;4.68;;;1.88;;
28545;SDS011;15749;49.606;8.738;2022-08-21T16:22:57;5.32;;;1.85;;
28545;SDS011;15749;49.606;8.738;2022-08-21T16:25:45;4.93;;;2.50;;
28545;SDS011;15749;49.606;8.738;2022-08-21T16:28:36;3.13;;;1.70;;
28545;SDS011;15749;49.606;8.738;2022-08-21T16:31:27;2.72;;;1.50;;
28545;SDS011;15749;49.606;8.738;2022-08-21T16:34:16;2.38;;;1.50;;
28545;SDS011;15749;49.606;8.738;2022-08-21T16:37:06;3.85;;;1.60;;
28545;SDS011;15749;49.606;8.738;2022-08-21T16:39:54;3.00;;;1.80;;
28545;SDS011;15749;49.606;8.738;2022-08-21T16:42:42;1.92;;;1.67;;
28545;SDS011;15749;49.606;8.738;2022-08-21T16:45:32;3.05;;;1.42;;
28545;SDS011;15749;49.606;8.738;2022-08-21T16:48:21;2.72;;;1.50;;
28545;SDS011;15749;49.606;8.738;2022-08-21T16:51:11;2.55;;;1.60;;
28545;SDS011;15749;49.606;8.738;2022-08-21T16:54:04;1.85;;;1.20;;
28545;SDS011;15749;49.606;8.738;2022-08-21T16:56:52;2.22;;;1.45;;
28545;SDS011;15749;49.606;8.738;2022-08-21T16:59:41;3.90;;;2.20;;
28545;SDS011;15749;49.606;8.738;2022-08-21T17:02:30;1.73;;;1.42;;
28545;SDS011;15749;49.606;8.738;2022-08-21T17:05:22;1.95;;;1.58;;
28545;SDS011;15749;49.606;8.738;2022-08-21T17:08:10;3.28;;;1.50;;
28545;SDS011;15749;49.606;8.738;2022-08-21T17:10:58;2.45;;;1.48;;
28545;SDS011;15749;49.606;8.738;2022-08-21T17:13:47;3.20;;;1.70;;
28545;SDS011;15749;49.606;8.738;2022-08-21T17:16:35;5.47;;;1.73;;
28545;SDS011;15749;49.606;8.738;2022-08-21T17:19:28;3.03;;;1.70;;
28545;SDS011;15749;49.606;8.738;2022-08-21T17:22:18;2.95;;;1.67;;
28545;SDS011;15749;49.606;8.738;2022-08-21T17:25:06;1.40;;;1.17;;
28545;SDS011;15749;49.606;8.738;2022-08-21T17:27:55;2.80;;;1.30;;
28545;SDS011;15749;49.606;8.738;2022-08-21T17:30:44;3.08;;;1.40;;
28545;SDS011;15749;49.606;8.738;2022-08-21T17:33:35;2.78;;;1.60;;
28545;SDS011;15749;49.606;8.738;2022-08-21T17:36:29;2.72;;;1.40;;
28545;SDS011;15749;49.606;8.738;2022-08-21T17:39:17;2.30;;;1.63;;
28545;SDS011;15749;49.606;8.738;2022-08-21T17:42:11;1.35;;;1.25;;
28545;SDS011;15749;49.606;8.738;2022-08-21T17:45:00;1.88;;;1.25;;
28545;SDS011;15749;49.606;8.738;2022-08-21T17:47:49;3.08;;;1.80;;
28545;SDS011;15749;49.606;8.738;2022-08-21T17:50:41;1.77;;;1.33;;
28545;SDS011;15749;49.606;8.738;2022-08-21T17:53:31;1.88;;;1.20;;
28545;SDS011;15749;49.606;8.738;2022-08-21T17:56:19;2.20;;;1.10;;
28545;SDS011;15749;49.606;8.738;2022-08-21T17:59:08;2.13;;;1.33;;
28545;SDS011;15749;49.606;8.738;2022-08-21T18:01:57;2.85;;;1.38;;
28545;SDS011;15749;49.606;8.738;2022-08-21T18:04:46;2.88;;;1.88;;
28545;SDS011;15749;49.606;8.738;2022-08-21T18:07:35;2.58;;;1.95;;
28545;SDS011;15749;49.606;8.738;2022-08-21T18:10:25;3.00;;;1.40;;
28545;SDS011;15749;49.606;8.738;2022-08-21T18:13:14;3.25;;;1.30;;
28545;SDS011;15749;49.606;8.738;2022-08-21T18:16:07;1.70;;;1.30;;
28545;SDS011;15749;49.606;8.738;2022-08-21T18:18:57;3.05;;;1.40;;
28545;SDS011;15749;49.606;8.738;2022-08-21T18:21:46;3.58;;;1.60;;
28545;SDS011;15749;49.606;8.738;2022-08-21T18:24:35;5.57;;;1.27;;